»·PEaware :: N427LJ KSNA-KBUR

N427LJ :: KSNA-KBUR

FLIGHT INFORMATION

Flight Status: Arrived
Operator: Privately registered:
United States
More flights under this callsign
Pilot: Anonymous 27948 (27948)
Aircraft: CESSNA 172 SKYHAWK
(C172)
More flights by this aircraft type
Origin: KSNA John Wayne-Orange Co
United States
Destination: KBUR Bob Hope-Burbank
United States
More flights between these airports :: More routes between these airports
Route: SLI V23 POPPR SMO125R SMO SMO311R SILEX
File this flight plan on PilotEdge
Remarks: I-3 RATING
Altitude:
(Current/Filed)
4,000ft
Speed:
(Current/Filed)
120kts
Departed: 26-Jun-20 03:41 PM
Arrived: 26-Jun-20 04:21 PM
Distance/Time
Traveled:
39nm/0:40
Distance/Time
To Go:
Arrived

Flight Plot

Page will automatically refresh every two minutes.


Map Options




Map Legend


Flown Route
Filed Route
Departure Airport
Arrival Airport
Navaid (VOR, NDB)
Fix

Horizontal Profiles

Position Reports

Time Latitude Longitude Heading Altitude Ground
Speed
26-Jun-20 15:26 33.670670 -117.868620 265 60ft 0kts
26-Jun-20 15:27 33.670670 -117.868620 265 60ft 0kts
26-Jun-20 15:28 33.670670 -117.868620 265 60ft 0kts
26-Jun-20 15:29 33.670670 -117.868620 265 60ft 0kts
26-Jun-20 15:30 33.670670 -117.868620 265 60ft 0kts
26-Jun-20 15:31 33.670670 -117.868620 265 60ft 0kts
26-Jun-20 15:32 33.670670 -117.868620 265 60ft 0kts
26-Jun-20 15:33 33.670738 -117.868915 301 60ft 7kts
26-Jun-20 15:34 33.672891 -117.867531 44 60ft 9kts
26-Jun-20 15:35 33.674058 -117.867117 26 60ft 9kts
26-Jun-20 15:36 33.677852 -117.864717 25 60ft 8kts
26-Jun-20 15:37 33.679927 -117.863568 312 60ft 0kts
26-Jun-20 15:38 33.679927 -117.863568 312 60ft 0kts
26-Jun-20 15:39 33.679936 -117.863580 313 60ft 2kts
26-Jun-20 15:40 33.668914 -117.872854 227 566ft 77kts
26-Jun-20 15:42 33.655820 -117.893606 231 1603ft 81kts
26-Jun-20 15:43 33.641915 -117.914886 231 2592ft 82kts
26-Jun-20 15:44 33.627777 -117.936536 231 3519ft 83kts
26-Jun-20 15:45 33.612315 -117.960258 231 4048ft 107kts
26-Jun-20 15:46 33.616385 -117.989319 325 4046ft 112kts
26-Jun-20 15:47 33.640317 -118.013595 315 4045ft 113kts
26-Jun-20 15:48 33.662089 -118.041007 312 4045ft 113kts
26-Jun-20 15:49 33.682998 -118.069013 311 4064ft 112kts
26-Jun-20 15:50 33.704150 -118.097851 311 4064ft 117kts
26-Jun-20 15:51 33.726031 -118.127843 311 4064ft 121kts
26-Jun-20 15:52 33.748458 -118.158638 311 4064ft 122kts
26-Jun-20 15:53 33.770886 -118.189462 311 4064ft 122kts
26-Jun-20 15:54 33.793424 -118.220475 311 4064ft 122kts
26-Jun-20 15:55 33.815829 -118.251333 311 4064ft 122kts
26-Jun-20 15:56 33.838328 -118.282348 311 4064ft 122kts
26-Jun-20 15:57 33.863900 -118.309591 320 4064ft 122kts
26-Jun-20 15:57 33.885826 -118.331612 320 4064ft 122kts
26-Jun-20 15:59 33.916496 -118.362409 320 4064ft 122kts
26-Jun-20 16:00 33.942951 -118.388996 320 4036ft 123kts
26-Jun-20 16:00 33.964813 -118.410986 320 4036ft 122kts
26-Jun-20 16:02 33.995422 -118.441798 320 4036ft 122kts
26-Jun-20 16:02 34.015897 -118.465517 312 4036ft 122kts
26-Jun-20 16:03 34.038847 -118.496087 312 4036ft 122kts
26-Jun-20 16:05 34.065586 -118.531704 312 4036ft 122kts
26-Jun-20 16:05 34.084501 -118.556899 312 4073ft 122kts
26-Jun-20 16:06 34.107461 -118.587476 312 4073ft 122kts
26-Jun-20 16:07 34.130323 -118.617919 312 4073ft 122kts
26-Jun-20 16:08 34.153342 -118.648566 312 4073ft 122kts
26-Jun-20 16:09 34.182170 -118.662337 352 4072ft 114kts
26-Jun-20 16:10 34.212004 -118.660534 54 4069ft 112kts
26-Jun-20 16:11 34.204185 -118.626656 105 4075ft 105kts
26-Jun-20 16:12 34.200310 -118.592507 91 4072ft 101kts
26-Jun-20 16:13 34.200136 -118.558435 90 3788ft 97kts
26-Jun-20 16:14 34.199781 -118.526856 90 3317ft 93kts
26-Jun-20 16:15 34.199413 -118.495448 90 2820ft 94kts
26-Jun-20 16:16 34.199044 -118.463542 90 2303ft 95kts
26-Jun-20 16:17 34.198668 -118.431586 90 1783ft 94kts
26-Jun-20 16:18 34.198318 -118.402308 90 1310ft 81kts
26-Jun-20 16:19 34.198000 -118.376106 90 892ft 73kts
26-Jun-20 16:20 34.198889 -118.360172 20 718ft 15kts
26-Jun-20 16:21 34.198992 -118.360122 21 719ft 0kts
26-Jun-20 16:26 34.196809 -118.351970 179 697ft 0kts

Navigation Log

Ident Type
Flight plan parsing failed, navigation log unavailable